sensor_id;sensor_type;location;lat;lon;timestamp;P1;durP1;ratioP1;P2;durP2;ratioP2
46845;SDS011;33947;46.804;134.252;2023-02-14T00:02:32;101.50;;;36.92;;
46845;SDS011;33947;46.804;134.252;2023-02-14T00:05:36;105.55;;;36.75;;
46845;SDS011;33947;46.804;134.252;2023-02-14T00:08:41;129.43;;;40.40;;
46845;SDS011;33947;46.804;134.252;2023-02-14T00:11:49;113.70;;;38.38;;
46845;SDS011;33947;46.804;134.252;2023-02-14T00:14:54;57.80;;;24.35;;
46845;SDS011;33947;46.804;134.252;2023-02-14T00:18:16;38.28;;;16.38;;
46845;SDS011;33947;46.804;134.252;2023-02-14T00:21:21;29.70;;;14.07;;
46845;SDS011;33947;46.804;134.252;2023-02-14T00:24:26;48.53;;;16.43;;
46845;SDS011;33947;46.804;134.252;2023-02-14T00:27:33;51.55;;;21.48;;
46845;SDS011;33947;46.804;134.252;2023-02-14T00:30:37;26.25;;;12.50;;
46845;SDS011;33947;46.804;134.252;2023-02-14T00:33:42;29.87;;;12.53;;
46845;SDS011;33947;46.804;134.252;2023-02-14T00:36:47;36.20;;;14.98;;
46845;SDS011;33947;46.804;134.252;2023-02-14T00:39:51;21.27;;;10.60;;
46845;SDS011;33947;46.804;134.252;2023-02-14T00:42:55;19.58;;;8.38;;
46845;SDS011;33947;46.804;134.252;2023-02-14T00:45:59;23.48;;;9.02;;
46845;SDS011;33947;46.804;134.252;2023-02-14T00:49:04;11.52;;;5.57;;
46845;SDS011;33947;46.804;134.252;2023-02-14T00:52:09;29.58;;;9.20;;
46845;SDS011;33947;46.804;134.252;2023-02-14T00:55:13;26.23;;;11.32;;
46845;SDS011;33947;46.804;134.252;2023-02-14T00:58:18;17.67;;;9.38;;
46845;SDS011;33947;46.804;134.252;2023-02-14T01:01:22;63.75;;;25.92;;
46845;SDS011;33947;46.804;134.252;2023-02-14T01:04:27;65.97;;;32.10;;
46845;SDS011;33947;46.804;134.252;2023-02-14T01:07:31;32.45;;;18.92;;
46845;SDS011;33947;46.804;134.252;2023-02-14T01:10:35;33.30;;;19.05;;
46845;SDS011;33947;46.804;134.252;2023-02-14T01:13:40;32.78;;;13.85;;
46845;SDS011;33947;46.804;134.252;2023-02-14T01:16:45;28.90;;;13.73;;
46845;SDS011;33947;46.804;134.252;2023-02-14T01:19:51;17.30;;;9.45;;
46845;SDS011;33947;46.804;134.252;2023-02-14T01:22:57;18.90;;;7.97;;
46845;SDS011;33947;46.804;134.252;2023-02-14T01:26:03;18.63;;;9.23;;
46845;SDS011;33947;46.804;134.252;2023-02-14T01:29:08;17.88;;;8.63;;
46845;SDS011;33947;46.804;134.252;2023-02-14T01:32:15;19.15;;;8.20;;
46845;SDS011;33947;46.804;134.252;2023-02-14T01:35:30;16.98;;;8.10;;
46845;SDS011;33947;46.804;134.252;2023-02-14T01:38:54;25.58;;;10.27;;
46845;SDS011;33947;46.804;134.252;2023-02-14T01:42:12;17.88;;;8.50;;
46845;SDS011;33947;46.804;134.252;2023-02-14T01:46:13;16.23;;;7.35;;
46845;SDS011;33947;46.804;134.252;2023-02-14T01:49:34;23.67;;;8.55;;
46845;SDS011;33947;46.804;134.252;2023-02-14T01:52:57;18.05;;;8.05;;
46845;SDS011;33947;46.804;134.252;2023-02-14T01:56:09;19.15;;;7.70;;
46845;SDS011;33947;46.804;134.252;2023-02-14T01:59:21;19.35;;;9.13;;
46845;SDS011;33947;46.804;134.252;2023-02-14T02:02:40;17.50;;;8.45;;
46845;SDS011;33947;46.804;134.252;2023-02-14T02:05:51;15.65;;;7.57;;
46845;SDS011;33947;46.804;134.252;2023-02-14T02:12:42;12.48;;;6.55;;
46845;SDS011;33947;46.804;134.252;2023-02-14T02:44:19;15.65;;;7.78;;
46845;SDS011;33947;46.804;134.252;2023-02-14T02:47:40;17.15;;;7.68;;
46845;SDS011;33947;46.804;134.252;2023-02-14T02:51:08;25.05;;;11.48;;
46845;SDS011;33947;46.804;134.252;2023-02-14T02:54:41;18.85;;;8.73;;
46845;SDS011;33947;46.804;134.252;2023-02-14T02:57:55;18.60;;;7.80;;
46845;SDS011;33947;46.804;134.252;2023-02-14T03:01:13;21.97;;;7.63;;
46845;SDS011;33947;46.804;134.252;2023-02-14T03:04:23;16.90;;;7.82;;
46845;SDS011;33947;46.804;134.252;2023-02-14T03:07:48;16.98;;;8.25;;
46845;SDS011;33947;46.804;134.252;2023-02-14T03:10:53;22.10;;;9.98;;
46845;SDS011;33947;46.804;134.252;2023-02-14T03:14:03;18.35;;;8.45;;
46845;SDS011;33947;46.804;134.252;2023-02-14T03:24:49;20.25;;;9.10;;
46845;SDS011;33947;46.804;134.252;2023-02-14T03:28:15;15.95;;;8.18;;
46845;SDS011;33947;46.804;134.252;2023-02-14T03:31:33;17.83;;;8.35;;
46845;SDS011;33947;46.804;134.252;2023-02-14T03:34:54;17.15;;;7.63;;
46845;SDS011;33947;46.804;134.252;2023-02-14T03:42:36;16.08;;;7.97;;
46845;SDS011;33947;46.804;134.252;2023-02-14T03:50:10;18.60;;;8.43;;
46845;SDS011;33947;46.804;134.252;2023-02-14T03:53:22;16.83;;;8.88;;
46845;SDS011;33947;46.804;134.252;2023-02-14T03:56:40;17.92;;;7.88;;
46845;SDS011;33947;46.804;134.252;2023-02-14T03:59:50;18.90;;;8.95;;
46845;SDS011;33947;46.804;134.252;2023-02-14T04:02:57;20.45;;;11.15;;
46845;SDS011;33947;46.804;134.252;2023-02-14T04:06:07;16.42;;;7.57;;
46845;SDS011;33947;46.804;134.252;2023-02-14T04:09:14;17.52;;;8.18;;
46845;SDS011;33947;46.804;134.252;2023-02-14T04:12:19;15.00;;;5.65;;
46845;SDS011;33947;46.804;134.252;2023-02-14T04:15:39;17.27;;;8.82;;
46845;SDS011;33947;46.804;134.252;2023-02-14T04:18:45;15.48;;;7.85;;
46845;SDS011;33947;46.804;134.252;2023-02-14T04:22:08;25.45;;;7.93;;
46845;SDS011;33947;46.804;134.252;2023-02-14T04:25:13;13.25;;;6.95;;
46845;SDS011;33947;46.804;134.252;2023-02-14T04:28:18;21.63;;;8.38;;
46845;SDS011;33947;46.804;134.252;2023-02-14T04:31:23;16.07;;;7.53;;
46845;SDS011;33947;46.804;134.252;2023-02-14T04:34:27;16.98;;;7.13;;
46845;SDS011;33947;46.804;134.252;2023-02-14T04:37:32;13.00;;;7.18;;
46845;SDS011;33947;46.804;134.252;2023-02-14T04:40:36;16.23;;;7.17;;
46845;SDS011;33947;46.804;134.252;2023-02-14T04:43:44;18.60;;;9.00;;
46845;SDS011;33947;46.804;134.252;2023-02-14T04:46:49;19.15;;;9.00;;
46845;SDS011;33947;46.804;134.252;2023-02-14T04:49:54;19.13;;;8.23;;
46845;SDS011;33947;46.804;134.252;2023-02-14T04:52:58;20.70;;;9.13;;
46845;SDS011;33947;46.804;134.252;2023-02-14T04:56:02;18.67;;;8.68;;
46845;SDS011;33947;46.804;134.252;2023-02-14T04:59:07;28.83;;;8.75;;
46845;SDS011;33947;46.804;134.252;2023-02-14T05:02:13;14.68;;;7.18;;
46845;SDS011;33947;46.804;134.252;2023-02-14T05:05:18;39.77;;;21.87;;
46845;SDS011;33947;46.804;134.252;2023-02-14T05:08:22;20.77;;;9.82;;
46845;SDS011;33947;46.804;134.252;2023-02-14T05:11:26;31.27;;;18.58;;
46845;SDS011;33947;46.804;134.252;2023-02-14T05:14:31;16.52;;;9.13;;
46845;SDS011;33947;46.804;134.252;2023-02-14T05:17:38;18.27;;;8.13;;
46845;SDS011;33947;46.804;134.252;2023-02-14T05:20:43;13.98;;;6.63;;
46845;SDS011;33947;46.804;134.252;2023-02-14T05:23:48;10.85;;;6.55;;
46845;SDS011;33947;46.804;134.252;2023-02-14T05:26:52;16.98;;;7.57;;
46845;SDS011;33947;46.804;134.252;2023-02-14T05:29:56;18.60;;;9.77;;
46845;SDS011;33947;46.804;134.252;2023-02-14T05:33:01;11.75;;;5.35;;
46845;SDS011;33947;46.804;134.252;2023-02-14T05:36:04;21.88;;;9.82;;
46845;SDS011;33947;46.804;134.252;2023-02-14T05:39:09;19.00;;;10.38;;
46845;SDS011;33947;46.804;134.252;2023-02-14T05:42:16;26.30;;;9.98;;
46845;SDS011;33947;46.804;134.252;2023-02-14T05:45:21;16.23;;;7.72;;
46845;SDS011;33947;46.804;134.252;2023-02-14T05:48:25;20.10;;;9.27;;
46845;SDS011;33947;46.804;134.252;2023-02-14T05:51:30;18.90;;;8.57;;
46845;SDS011;33947;46.804;134.252;2023-02-14T05:54:34;17.13;;;7.13;;
46845;SDS011;33947;46.804;134.252;2023-02-14T05:57:39;16.90;;;7.25;;
46845;SDS011;33947;46.804;134.252;2023-02-14T06:00:43;17.83;;;7.70;;
46845;SDS011;33947;46.804;134.252;2023-02-14T06:03:47;13.82;;;7.40;;
46845;SDS011;33947;46.804;134.252;2023-02-14T06:06:52;26.27;;;10.85;;
46845;SDS011;33947;46.804;134.252;2023-02-14T06:09:56;23.80;;;9.40;;
46845;SDS011;33947;46.804;134.252;2023-02-14T06:13:01;15.15;;;6.65;;
46845;SDS011;33947;46.804;134.252;2023-02-14T06:16:05;18.08;;;8.27;;
46845;SDS011;33947;46.804;134.252;2023-02-14T06:19:09;11.48;;;7.10;;
46845;SDS011;33947;46.804;134.252;2023-02-14T06:22:17;17.63;;;8.52;;
46845;SDS011;33947;46.804;134.252;2023-02-14T06:25:22;9.23;;;6.28;;
46845;SDS011;33947;46.804;134.252;2023-02-14T06:28:26;12.68;;;5.95;;
46845;SDS011;33947;46.804;134.252;2023-02-14T06:31:31;17.60;;;7.90;;
46845;SDS011;33947;46.804;134.252;2023-02-14T06:34:35;7.97;;;4.85;;
46845;SDS011;33947;46.804;134.252;2023-02-14T06:37:42;15.65;;;5.80;;
46845;SDS011;33947;46.804;134.252;2023-02-14T06:40:47;13.70;;;5.70;;
46845;SDS011;33947;46.804;134.252;2023-02-14T06:43:52;15.57;;;5.80;;
46845;SDS011;33947;46.804;134.252;2023-02-14T06:46:59;16.92;;;8.27;;
46845;SDS011;33947;46.804;134.252;2023-02-14T06:50:12;22.13;;;9.70;;
46845;SDS011;33947;46.804;134.252;2023-02-14T06:53:16;22.45;;;10.55;;
46845;SDS011;33947;46.804;134.252;2023-02-14T06:56:21;21.63;;;10.73;;
46845;SDS011;33947;46.804;134.252;2023-02-14T06:59:25;17.38;;;9.77;;
46845;SDS011;33947;46.804;134.252;2023-02-14T07:02:29;27.55;;;10.15;;
46845;SDS011;33947;46.804;134.252;2023-02-14T07:05:34;9.95;;;5.40;;
46845;SDS011;33947;46.804;134.252;2023-02-14T07:08:39;16.67;;;7.13;;
46845;SDS011;33947;46.804;134.252;2023-02-14T07:11:44;16.05;;;7.45;;
46845;SDS011;33947;46.804;134.252;2023-02-14T07:14:48;25.65;;;10.27;;
46845;SDS011;33947;46.804;134.252;2023-02-14T07:17:52;19.95;;;9.50;;
46845;SDS011;33947;46.804;134.252;2023-02-14T07:20:57;29.30;;;14.27;;
46845;SDS011;33947;46.804;134.252;2023-02-14T07:24:01;21.80;;;9.75;;
46845;SDS011;33947;46.804;134.252;2023-02-14T07:27:09;20.38;;;8.00;;
46845;SDS011;33947;46.804;134.252;2023-02-14T07:30:13;29.42;;;12.80;;
46845;SDS011;33947;46.804;134.252;2023-02-14T07:33:17;29.73;;;10.90;;
46845;SDS011;33947;46.804;134.252;2023-02-14T07:36:22;12.68;;;6.57;;
46845;SDS011;33947;46.804;134.252;2023-02-14T07:39:26;23.77;;;9.77;;
46845;SDS011;33947;46.804;134.252;2023-02-14T07:42:31;15.70;;;6.88;;
46845;SDS011;33947;46.804;134.252;2023-02-14T07:45:35;32.67;;;11.93;;
46845;SDS011;33947;46.804;134.252;2023-02-14T07:48:43;26.70;;;9.07;;
46845;SDS011;33947;46.804;134.252;2023-02-14T07:52:10;24.77;;;9.93;;
46845;SDS011;33947;46.804;134.252;2023-02-14T07:55:15;16.53;;;7.43;;
46845;SDS011;33947;46.804;134.252;2023-02-14T07:58:19;19.35;;;8.77;;
46845;SDS011;33947;46.804;134.252;2023-02-14T08:01:23;13.07;;;7.25;;
46845;SDS011;33947;46.804;134.252;2023-02-14T08:04:28;9.23;;;5.78;;
46845;SDS011;33947;46.804;134.252;2023-02-14T08:07:34;19.27;;;8.00;;
46845;SDS011;33947;46.804;134.252;2023-02-14T08:10:39;13.65;;;6.82;;
46845;SDS011;33947;46.804;134.252;2023-02-14T08:13:43;11.60;;;6.70;;
46845;SDS011;33947;46.804;134.252;2023-02-14T08:16:49;20.30;;;8.32;;
46845;SDS011;33947;46.804;134.252;2023-02-14T08:19:53;32.65;;;13.43;;
46845;SDS011;33947;46.804;134.252;2023-02-14T08:22:58;23.80;;;9.98;;
46845;SDS011;33947;46.804;134.252;2023-02-14T08:26:02;21.85;;;9.18;;
46845;SDS011;33947;46.804;134.252;2023-02-14T08:29:06;14.50;;;6.63;;
46845;SDS011;33947;46.804;134.252;2023-02-14T08:32:10;25.63;;;9.50;;
46845;SDS011;33947;46.804;134.252;2023-02-14T08:35:15;23.77;;;9.77;;
46845;SDS011;33947;46.804;134.252;2023-02-14T08:38:20;25.60;;;9.77;;
46845;SDS011;33947;46.804;134.252;2023-02-14T08:41:24;19.77;;;8.55;;
46845;SDS011;33947;46.804;134.252;2023-02-14T08:44:29;16.95;;;7.60;;
46845;SDS011;33947;46.804;134.252;2023-02-14T08:47:33;21.98;;;9.07;;
46845;SDS011;33947;46.804;134.252;2023-02-14T08:50:42;28.33;;;9.70;;
46845;SDS011;33947;46.804;134.252;2023-02-14T08:53:49;30.17;;;11.13;;
46845;SDS011;33947;46.804;134.252;2023-02-14T08:56:54;22.38;;;8.63;;
46845;SDS011;33947;46.804;134.252;2023-02-14T08:59:58;23.10;;;7.93;;
46845;SDS011;33947;46.804;134.252;2023-02-14T09:03:04;16.02;;;7.07;;
46845;SDS011;33947;46.804;134.252;2023-02-14T09:06:13;14.43;;;5.22;;
46845;SDS011;33947;46.804;134.252;2023-02-14T09:09:19;11.40;;;4.72;;
46845;SDS011;33947;46.804;134.252;2023-02-14T09:12:23;11.93;;;5.15;;
46845;SDS011;33947;46.804;134.252;2023-02-14T09:15:28;11.88;;;5.88;;
46845;SDS011;33947;46.804;134.252;2023-02-14T09:18:35;19.50;;;5.57;;
46845;SDS011;33947;46.804;134.252;2023-02-14T09:21:41;28.27;;;10.18;;
46845;SDS011;33947;46.804;134.252;2023-02-14T09:24:45;33.15;;;11.40;;
46845;SDS011;33947;46.804;134.252;2023-02-14T09:27:50;46.58;;;12.93;;
46845;SDS011;33947;46.804;134.252;2023-02-14T09:30:54;45.30;;;13.50;;
46845;SDS011;33947;46.804;134.252;2023-02-14T09:34:00;24.42;;;9.57;;
46845;SDS011;33947;46.804;134.252;2023-02-14T09:37:09;25.83;;;9.77;;
46845;SDS011;33947;46.804;134.252;2023-02-14T09:40:32;23.77;;;9.85;;
46845;SDS011;33947;46.804;134.252;2023-02-14T09:47:36;11.50;;;6.20;;
46845;SDS011;33947;46.804;134.252;2023-02-14T09:50:45;13.02;;;6.65;;
46845;SDS011;33947;46.804;134.252;2023-02-14T09:57:27;6.93;;;4.13;;
46845;SDS011;33947;46.804;134.252;2023-02-14T10:00:52;9.00;;;4.25;;
46845;SDS011;33947;46.804;134.252;2023-02-14T10:16:49;11.00;;;5.28;;
46845;SDS011;33947;46.804;134.252;2023-02-14T10:20:15;14.18;;;6.43;;
46845;SDS011;33947;46.804;134.252;2023-02-14T10:26:41;20.27;;;9.98;;
46845;SDS011;33947;46.804;134.252;2023-02-14T10:29:46;23.00;;;10.45;;
46845;SDS011;33947;46.804;134.252;2023-02-14T10:39:55;19.23;;;7.70;;
46845;SDS011;33947;46.804;134.252;2023-02-14T10:46:43;13.68;;;4.85;;
46845;SDS011;33947;46.804;134.252;2023-02-14T10:50:20;13.48;;;5.93;;
46845;SDS011;33947;46.804;134.252;2023-02-14T10:53:39;15.32;;;8.95;;
46845;SDS011;33947;46.804;134.252;2023-02-14T11:01:24;13.20;;;7.18;;
46845;SDS011;33947;46.804;134.252;2023-02-14T11:04:15;16.50;;;7.80;;
46845;SDS011;33947;46.804;134.252;2023-02-14T11:07:22;19.75;;;9.45;;
46845;SDS011;33947;46.804;134.252;2023-02-14T11:10:30;20.70;;;10.03;;
46845;SDS011;33947;46.804;134.252;2023-02-14T11:13:39;31.27;;;10.88;;
46845;SDS011;33947;46.804;134.252;2023-02-14T11:16:43;26.52;;;10.52;;
46845;SDS011;33947;46.804;134.252;2023-02-14T11:19:59;28.77;;;9.43;;
46845;SDS011;33947;46.804;134.252;2023-02-14T11:23:19;22.70;;;9.40;;
46845;SDS011;33947;46.804;134.252;2023-02-14T11:26:25;27.85;;;9.90;;
46845;SDS011;33947;46.804;134.252;2023-02-14T11:32:47;21.80;;;12.57;;
46845;SDS011;33947;46.804;134.252;2023-02-14T11:35:57;27.17;;;11.55;;
46845;SDS011;33947;46.804;134.252;2023-02-14T11:42:36;59.80;;;19.65;;
46845;SDS011;33947;46.804;134.252;2023-02-14T11:49:29;112.75;;;29.55;;
46845;SDS011;33947;46.804;134.252;2023-02-14T11:52:38;140.15;;;37.10;;
46845;SDS011;33947;46.804;134.252;2023-02-14T11:55:52;122.18;;;35.85;;
46845;SDS011;33947;46.804;134.252;2023-02-14T11:58:59;169.07;;;50.03;;
46845;SDS011;33947;46.804;134.252;2023-02-14T12:05:44;179.50;;;57.58;;
46845;SDS011;33947;46.804;134.252;2023-02-14T12:08:52;202.35;;;62.15;;
46845;SDS011;33947;46.804;134.252;2023-02-14T12:12:23;206.63;;;57.30;;
46845;SDS011;33947;46.804;134.252;2023-02-14T12:18:51;179.68;;;57.88;;
46845;SDS011;33947;46.804;134.252;2023-02-14T12:22:03;175.63;;;57.13;;
46845;SDS011;33947;46.804;134.252;2023-02-14T12:25:19;225.15;;;70.05;;
46845;SDS011;33947;46.804;134.252;2023-02-14T12:28:40;201.20;;;68.03;;
46845;SDS011;33947;46.804;134.252;2023-02-14T12:31:50;179.15;;;63.63;;
46845;SDS011;33947;46.804;134.252;2023-02-14T12:38:54;134.68;;;49.28;;
46845;SDS011;33947;46.804;134.252;2023-02-14T12:42:32;145.30;;;47.53;;
46845;SDS011;33947;46.804;134.252;2023-02-14T12:46:03;123.93;;;43.08;;
46845;SDS011;33947;46.804;134.252;2023-02-14T12:49:14;224.38;;;62.53;;
46845;SDS011;33947;46.804;134.252;2023-02-14T12:56:02;124.13;;;41.85;;
46845;SDS011;33947;46.804;134.252;2023-02-14T12:59:25;259.45;;;76.20;;
46845;SDS011;33947;46.804;134.252;2023-02-14T13:09:42;202.60;;;64.55;;
46845;SDS011;33947;46.804;134.252;2023-02-14T13:13:00;232.93;;;66.30;;
46845;SDS011;33947;46.804;134.252;2023-02-14T13:19:43;163.20;;;53.05;;
46845;SDS011;33947;46.804;134.252;2023-02-14T13:22:51;153.32;;;48.70;;
46845;SDS011;33947;46.804;134.252;2023-02-14T13:25:59;162.10;;;49.95;;
46845;SDS011;33947;46.804;134.252;2023-02-14T13:29:12;171.48;;;50.70;;
46845;SDS011;33947;46.804;134.252;2023-02-14T13:32:21;186.68;;;55.83;;
46845;SDS011;33947;46.804;134.252;2023-02-14T13:35:28;189.38;;;56.20;;
46845;SDS011;33947;46.804;134.252;2023-02-14T13:38:52;204.05;;;61.63;;
46845;SDS011;33947;46.804;134.252;2023-02-14T13:41:59;198.75;;;58.75;;
46845;SDS011;33947;46.804;134.252;2023-02-14T13:45:04;219.73;;;67.83;;
46845;SDS011;33947;46.804;134.252;2023-02-14T13:48:10;239.57;;;67.20;;
46845;SDS011;33947;46.804;134.252;2023-02-14T13:51:18;258.15;;;77.63;;
46845;SDS011;33947;46.804;134.252;2023-02-14T13:57:33;302.95;;;88.65;;
46845;SDS011;33947;46.804;134.252;2023-02-14T14:00:39;342.48;;;101.95;;
46845;SDS011;33947;46.804;134.252;2023-02-14T14:03:55;320.83;;;90.60;;
46845;SDS011;33947;46.804;134.252;2023-02-14T14:07:14;283.55;;;88.82;;
46845;SDS011;33947;46.804;134.252;2023-02-14T14:10:40;351.60;;;91.15;;
46845;SDS011;33947;46.804;134.252;2023-02-14T14:17:23;272.95;;;83.60;;
46845;SDS011;33947;46.804;134.252;2023-02-14T14:20:36;304.90;;;86.63;;
46845;SDS011;33947;46.804;134.252;2023-02-14T14:23:43;238.82;;;73.10;;
46845;SDS011;33947;46.804;134.252;2023-02-14T14:30:14;295.40;;;84.43;;
46845;SDS011;33947;46.804;134.252;2023-02-14T14:36:32;208.63;;;63.60;;
46845;SDS011;33947;46.804;134.252;2023-02-14T14:39:36;201.43;;;60.80;;
46845;SDS011;33947;46.804;134.252;2023-02-14T14:42:42;198.20;;;60.95;;
46845;SDS011;33947;46.804;134.252;2023-02-14T14:45:47;163.60;;;48.92;;
46845;SDS011;33947;46.804;134.252;2023-02-14T14:48:55;233.63;;;68.60;;
46845;SDS011;33947;46.804;134.252;2023-02-14T14:52:00;275.17;;;76.28;;
46845;SDS011;33947;46.804;134.252;2023-02-14T14:55:06;243.77;;;66.20;;
46845;SDS011;33947;46.804;134.252;2023-02-14T14:58:38;193.90;;;56.28;;
46845;SDS011;33947;46.804;134.252;2023-02-14T15:01:45;241.32;;;69.00;;
46845;SDS011;33947;46.804;134.252;2023-02-14T15:04:50;271.92;;;77.60;;
46845;SDS011;33947;46.804;134.252;2023-02-14T15:14:49;295.15;;;76.97;;
46845;SDS011;33947;46.804;134.252;2023-02-14T15:17:57;251.85;;;73.65;;
46845;SDS011;33947;46.804;134.252;2023-02-14T15:21:02;213.60;;;64.55;;
46845;SDS011;33947;46.804;134.252;2023-02-14T15:24:10;232.25;;;68.78;;
46845;SDS011;33947;46.804;134.252;2023-02-14T15:27:19;221.27;;;61.45;;
46845;SDS011;33947;46.804;134.252;2023-02-14T15:30:29;203.95;;;60.25;;
46845;SDS011;33947;46.804;134.252;2023-02-14T15:33:40;406.65;;;103.40;;
46845;SDS011;33947;46.804;134.252;2023-02-14T15:36:44;240.05;;;70.28;;
46845;SDS011;33947;46.804;134.252;2023-02-14T15:39:53;281.58;;;77.50;;
46845;SDS011;33947;46.804;134.252;2023-02-14T15:43:01;281.42;;;76.28;;
46845;SDS011;33947;46.804;134.252;2023-02-14T15:49:35;212.07;;;57.83;;
46845;SDS011;33947;46.804;134.252;2023-02-14T15:52:43;201.60;;;58.60;;
46845;SDS011;33947;46.804;134.252;2023-02-14T15:55:50;192.60;;;57.75;;
46845;SDS011;33947;46.804;134.252;2023-02-14T16:02:28;155.52;;;44.92;;
46845;SDS011;33947;46.804;134.252;2023-02-14T16:05:44;145.27;;;44.33;;
46845;SDS011;33947;46.804;134.252;2023-02-14T16:08:53;158.60;;;46.53;;
46845;SDS011;33947;46.804;134.252;2023-02-14T16:15:32;103.85;;;34.53;;
46845;SDS011;33947;46.804;134.252;2023-02-14T16:18:43;112.68;;;35.28;;
46845;SDS011;33947;46.804;134.252;2023-02-14T16:21:55;99.25;;;31.90;;
46845;SDS011;33947;46.804;134.252;2023-02-14T16:24:59;122.18;;;36.78;;
46845;SDS011;33947;46.804;134.252;2023-02-14T16:28:04;84.97;;;26.92;;
46845;SDS011;33947;46.804;134.252;2023-02-14T16:31:11;89.10;;;29.70;;
46845;SDS011;33947;46.804;134.252;2023-02-14T16:34:19;75.10;;;27.50;;
46845;SDS011;33947;46.804;134.252;2023-02-14T16:37:28;71.80;;;28.15;;
46845;SDS011;33947;46.804;134.252;2023-02-14T16:40:35;68.03;;;24.13;;
46845;SDS011;33947;46.804;134.252;2023-02-14T16:43:40;97.40;;;27.90;;
46845;SDS011;33947;46.804;134.252;2023-02-14T16:46:44;79.13;;;27.73;;
46845;SDS011;33947;46.804;134.252;2023-02-14T16:49:49;67.22;;;23.30;;
46845;SDS011;33947;46.804;134.252;2023-02-14T16:52:55;74.30;;;26.10;;
46845;SDS011;33947;46.804;134.252;2023-02-14T16:56:00;61.30;;;20.63;;
46845;SDS011;33947;46.804;134.252;2023-02-14T16:59:05;74.65;;;23.08;;
46845;SDS011;33947;46.804;134.252;2023-02-14T17:02:09;80.72;;;25.08;;
46845;SDS011;33947;46.804;134.252;2023-02-14T17:05:15;115.82;;;34.22;;
46845;SDS011;33947;46.804;134.252;2023-02-14T17:08:20;53.70;;;20.92;;
46845;SDS011;33947;46.804;134.252;2023-02-14T17:11:25;54.10;;;21.08;;
46845;SDS011;33947;46.804;134.252;2023-02-14T17:14:32;37.20;;;15.38;;
46845;SDS011;33947;46.804;134.252;2023-02-14T17:17:41;53.88;;;17.83;;
46845;SDS011;33947;46.804;134.252;2023-02-14T17:20:47;98.80;;;26.48;;
46845;SDS011;33947;46.804;134.252;2023-02-14T17:23:52;61.75;;;17.77;;
46845;SDS011;33947;46.804;134.252;2023-02-14T17:26:56;63.83;;;20.25;;
46845;SDS011;33947;46.804;134.252;2023-02-14T17:30:00;67.78;;;25.55;;
46845;SDS011;33947;46.804;134.252;2023-02-14T17:33:05;80.05;;;23.08;;
46845;SDS011;33947;46.804;134.252;2023-02-14T17:36:10;51.85;;;18.48;;
46845;SDS011;33947;46.804;134.252;2023-02-14T17:39:17;57.95;;;20.50;;
46845;SDS011;33947;46.804;134.252;2023-02-14T17:42:21;61.85;;;20.25;;
46845;SDS011;33947;46.804;134.252;2023-02-14T17:45:26;81.40;;;25.67;;
46845;SDS011;33947;46.804;134.252;2023-02-14T17:48:30;47.85;;;18.85;;
46845;SDS011;33947;46.804;134.252;2023-02-14T17:51:34;44.40;;;20.23;;
46845;SDS011;33947;46.804;134.252;2023-02-14T17:54:38;58.00;;;20.30;;
46845;SDS011;33947;46.804;134.252;2023-02-14T17:57:43;36.40;;;15.15;;
46845;SDS011;33947;46.804;134.252;2023-02-14T18:00:47;32.53;;;14.38;;
46845;SDS011;33947;46.804;134.252;2023-02-14T18:03:52;37.83;;;16.05;;
46845;SDS011;33947;46.804;134.252;2023-02-14T18:06:57;44.00;;;15.55;;
46845;SDS011;33947;46.804;134.252;2023-02-14T18:10:01;53.17;;;14.82;;
46845;SDS011;33947;46.804;134.252;2023-02-14T18:13:05;23.95;;;11.63;;
46845;SDS011;33947;46.804;134.252;2023-02-14T18:16:10;33.28;;;11.45;;
46845;SDS011;33947;46.804;134.252;2023-02-14T18:19:17;31.00;;;11.75;;
46845;SDS011;33947;46.804;134.252;2023-02-14T18:22:21;16.33;;;8.57;;
46845;SDS011;33947;46.804;134.252;2023-02-14T18:25:25;33.22;;;8.77;;
46845;SDS011;33947;46.804;134.252;2023-02-14T18:28:31;24.45;;;8.15;;
46845;SDS011;33947;46.804;134.252;2023-02-14T18:31:38;14.70;;;6.18;;
46845;SDS011;33947;46.804;134.252;2023-02-14T18:34:44;16.95;;;5.90;;
46845;SDS011;33947;46.804;134.252;2023-02-14T18:37:49;15.40;;;6.18;;
46845;SDS011;33947;46.804;134.252;2023-02-14T18:43:58;12.30;;;6.80;;
46845;SDS011;33947;46.804;134.252;2023-02-14T18:47:03;9.05;;;5.05;;
46845;SDS011;33947;46.804;134.252;2023-02-14T18:50:09;15.90;;;6.55;;
46845;SDS011;33947;46.804;134.252;2023-02-14T18:53:13;13.35;;;6.22;;
46845;SDS011;33947;46.804;134.252;2023-02-14T18:56:19;46.95;;;15.32;;
46845;SDS011;33947;46.804;134.252;2023-02-14T18:59:25;58.67;;;18.23;;
46845;SDS011;33947;46.804;134.252;2023-02-14T19:02:29;220.83;;;67.93;;
46845;SDS011;33947;46.804;134.252;2023-02-14T19:05:36;145.50;;;54.58;;
46845;SDS011;33947;46.804;134.252;2023-02-14T19:08:41;123.18;;;41.58;;
46845;SDS011;33947;46.804;134.252;2023-02-14T19:14:51;70.00;;;25.48;;
46845;SDS011;33947;46.804;134.252;2023-02-14T19:17:58;44.15;;;19.05;;
46845;SDS011;33947;46.804;134.252;2023-02-14T19:21:12;48.42;;;18.10;;
46845;SDS011;33947;46.804;134.252;2023-02-14T19:24:29;29.30;;;11.63;;
46845;SDS011;33947;46.804;134.252;2023-02-14T19:27:34;20.48;;;10.50;;
46845;SDS011;33947;46.804;134.252;2023-02-14T19:30:39;36.40;;;12.55;;
46845;SDS011;33947;46.804;134.252;2023-02-14T19:33:45;24.98;;;9.50;;
46845;SDS011;33947;46.804;134.252;2023-02-14T19:36:50;14.48;;;7.22;;
46845;SDS011;33947;46.804;134.252;2023-02-14T19:39:55;21.40;;;8.45;;
46845;SDS011;33947;46.804;134.252;2023-02-14T19:46:04;25.58;;;6.50;;
46845;SDS011;33947;46.804;134.252;2023-02-14T19:49:11;24.55;;;10.52;;
46845;SDS011;33947;46.804;134.252;2023-02-14T19:52:17;25.13;;;11.00;;
46845;SDS011;33947;46.804;134.252;2023-02-14T19:55:29;21.58;;;9.43;;
46845;SDS011;33947;46.804;134.252;2023-02-14T19:58:34;21.85;;;7.53;;
46845;SDS011;33947;46.804;134.252;2023-02-14T20:01:43;16.45;;;6.38;;
46845;SDS011;33947;46.804;134.252;2023-02-14T20:04:51;9.65;;;5.75;;
46845;SDS011;33947;46.804;134.252;2023-02-14T20:08:01;13.73;;;7.43;;
46845;SDS011;33947;46.804;134.252;2023-02-14T20:11:08;27.40;;;12.50;;
46845;SDS011;33947;46.804;134.252;2023-02-14T20:14:56;14.88;;;7.35;;
46845;SDS011;33947;46.804;134.252;2023-02-14T20:18:01;16.77;;;6.65;;
46845;SDS011;33947;46.804;134.252;2023-02-14T20:21:13;11.73;;;7.43;;
46845;SDS011;33947;46.804;134.252;2023-02-14T20:27:52;15.73;;;11.35;;
46845;SDS011;33947;46.804;134.252;2023-02-14T20:30:56;38.22;;;11.48;;
46845;SDS011;33947;46.804;134.252;2023-02-14T20:34:02;22.38;;;10.45;;
46845;SDS011;33947;46.804;134.252;2023-02-14T20:37:07;22.77;;;9.85;;
46845;SDS011;33947;46.804;134.252;2023-02-14T20:40:15;33.88;;;11.40;;
46845;SDS011;33947;46.804;134.252;2023-02-14T20:43:24;42.83;;;13.90;;